Time;durP1;ratioP1;P1;durP2;ratioP2;P2;SDS_P1;SDS_P2;PMS_P1;PMS_P2;Temp;Humidity;BMP_temperature;BMP_pressure;BME280_temperature;BME280_humidity;BME280_pressure;Samples;Min_cycle;Max_cycle;Signal;HPM_P1;HPM_P2
2022/06/26 00:01:38;;;;;;;10.35;4.75;;;;;;;;;;4972352;28;20038;-74
2022/06/26 00:04:05;;;;;;;11.40;4.82;;;;;;;;;;4993518;28;20034;-74
2022/06/26 00:06:31;;;;;;;10.73;4.75;;;;;;;;;;4987448;28;20039;-74
2022/06/26 00:08:56;;;;;;;7.80;4.63;;;18.50;99.90;;;;;;4991466;28;20054;-74
2022/06/26 00:11:22;;;;;;;8.45;4.20;;;;;;;;;;5006634;28;20428;-74
2022/06/26 00:13:49;;;;;;;7.05;4.60;;;;;;;;;;4987784;28;20038;-74
2022/06/26 00:16:15;;;;;;;12.85;5.68;;;;;;;;;;4983270;28;20402;-74
2022/06/26 00:18:41;;;;;;;10.00;4.93;;;;;;;;;;4987800;28;20033;-74
2022/06/26 00:21:07;;;;;;;9.95;5.13;;;18.30;99.90;;;;;;4993207;28;20085;-74
2022/06/26 00:23:37;;;;;;;8.52;4.90;;;;;;;;;;4985552;28;20528;-74
2022/06/26 00:26:03;;;;;;;14.05;8.00;;;;;;;;;;4991092;28;20436;-74
2022/06/26 00:28:30;;;;;;;12.20;8.25;;;;;;;;;;4991087;28;20046;-74
2022/06/26 00:30:56;;;;;;;14.30;7.55;;;;;;;;;;4990317;28;20049;-74
2022/06/26 00:33:22;;;;;;;15.48;8.18;;;;;;;;;;4989941;28;20127;-74
2022/06/26 00:35:48;;;;;;;13.18;8.35;;;;;;;;;;4986684;28;20061;-74
2022/06/26 00:38:14;;;;;;;14.10;8.48;;;;;;;;;;4977820;28;20038;-74
2022/06/26 00:40:40;;;;;;;17.92;8.45;;;18.20;99.90;;;;;;4992711;28;20030;-74
2022/06/26 00:43:07;;;;;;;16.88;8.05;;;;;;;;;;4973421;28;20041;-75
2022/06/26 00:45:33;;;;;;;11.18;8.32;;;;;;;;;;4971265;28;20027;-75
2022/06/26 00:47:59;;;;;;;14.73;9.35;;;;;;;;;;4990983;28;20045;-74
2022/06/26 00:50:25;;;;;;;16.92;8.93;;;;;;;;;;4991452;28;20033;-74
2022/06/26 00:52:53;;;;;;;13.55;7.40;;;18.40;99.90;;;;;;4993799;28;20108;-74
2022/06/26 00:55:19;;;;;;;13.95;7.00;;;;;;;;;;4977411;28;20034;-74
2022/06/26 00:57:46;;;;;;;15.30;6.35;;;;;;;;;;4989239;28;20042;-74
2022/06/26 01:00:12;;;;;;;10.15;5.90;;;;;;;;;;4987482;28;20062;-74
2022/06/26 01:02:38;;;;;;;13.05;5.20;;;;;;;;;;4975929;28;20037;-74
2022/06/26 01:05:05;;;;;;;8.77;5.10;;;;;;;;;;4964229;28;20030;-74
2022/06/26 01:07:31;;;;;;;8.50;4.60;;;18.60;99.90;;;;;;4986876;28;20082;-74
2022/06/26 01:09:57;;;;;;;16.15;5.18;;;;;;;;;;4988069;28;20093;-74
2022/06/26 01:12:24;;;;;;;11.93;4.47;;;;;;;;;;4991430;28;20046;-74
2022/06/26 01:14:50;;;;;;;8.98;4.45;;;;;;;;;;4989038;28;20038;-74
2022/06/26 01:17:16;;;;;;;7.47;4.65;;;;;;;;;;4975791;28;20390;-74
2022/06/26 01:19:43;;;;;;;8.30;3.78;;;;;;;;;;4981367;28;20030;-74
2022/06/26 01:22:09;;;;;;;10.15;4.28;;;;;;;;;;4975263;28;20035;-74
2022/06/26 01:24:35;;;;;;;6.90;3.65;;;;;;;;;;4969937;28;20109;-74
2022/06/26 01:27:01;;;;;;;8.77;4.38;;;;;;;;;;4992026;28;20033;-74
2022/06/26 01:29:27;;;;;;;5.88;3.40;;;;;;;;;;4987897;28;20155;-74
2022/06/26 01:31:53;;;;;;;8.07;3.13;;;;;;;;;;4976597;28;20041;-74
2022/06/26 01:34:19;;;;;;;6.70;3.00;;;;;;;;;;4967056;28;20041;-74
2022/06/26 01:36:45;;;;;;;5.80;3.13;;;;;;;;;;4971895;28;20434;-74
2022/06/26 01:39:11;;;;;;;5.32;2.80;;;;;;;;;;4991693;28;20034;-74
2022/06/26 01:41:37;;;;;;;7.30;2.78;;;;;;;;;;4978655;28;20534;-74
2022/06/26 01:44:07;;;;;;;5.97;2.45;;;;;;;;;;4991734;28;20034;-74
2022/06/26 01:46:33;;;;;;;5.13;2.80;;;;;;;;;;4986810;28;20030;-74
2022/06/26 01:48:59;;;;;;;6.40;2.10;;;;;;;;;;4990964;28;20070;-74
2022/06/26 01:51:25;;;;;;;3.65;2.30;;;;;;;;;;4987881;28;20077;-74
2022/06/26 01:53:51;;;;;;;4.85;2.50;;;;;;;;;;4989035;28;20035;-74
2022/06/26 01:56:17;;;;;;;5.72;2.20;;;;;;;;;;4985725;28;20030;-74
2022/06/26 01:58:43;;;;;;;5.82;2.10;;;;;;;;;;4988711;28;20038;-74
2022/06/26 02:01:09;;;;;;;2.33;2.00;;;;;;;;;;4980114;28;20038;-74
2022/06/26 02:03:36;;;;;;;8.43;2.20;;;;;;;;;;4983614;28;20038;-74
2022/06/26 02:06:02;;;;;;;3.63;2.10;;;;;;;;;;4983172;28;20054;-74
2022/06/26 02:08:28;;;;;;;4.43;2.00;;;;;;;;;;4987029;28;20379;-74
2022/06/26 02:13:42;;;;;;;8.63;2.88;;;;;;;;;;4989041;28;20041;-74
2022/06/26 02:16:13;;;;;;;7.95;2.58;;;;;;;;;;4985828;28;20064;-74
2022/06/26 02:18:40;;;;;;;4.78;2.72;;;;;;;;;;4989279;28;20062;-74
2022/06/26 02:21:10;;;;;;;8.27;2.90;;;18.40;99.90;;;;;;4989794;28;20057;-74
2022/06/26 02:23:37;;;;;;;4.47;2.80;;;18.30;99.90;;;;;;4988636;28;20038;-74
2022/06/26 02:26:05;;;;;;;6.88;2.78;;;;;;;;;;4987761;28;20035;-73
2022/06/26 02:28:31;;;;;;;4.40;2.50;;;;;;;;;;4987267;28;20644;-74
2022/06/26 02:30:57;;;;;;;6.60;2.72;;;;;;;;;;4985017;28;20123;-74
2022/06/26 02:33:23;;;;;;;5.43;3.00;;;;;;;;;;4990018;28;20172;-74
2022/06/26 02:35:49;;;;;;;10.05;3.15;;;18.10;99.90;;;;;;4989779;28;20054;-74
2022/06/26 02:38:15;;;;;;;5.00;2.47;;;;;;;;;;4988374;28;20113;-74
2022/06/26 02:40:42;;;;;;;14.57;3.20;;;;;;;;;;4990215;28;20116;-74
2022/06/26 02:43:08;;;;;;;5.18;2.45;;;;;;;;;;4989612;28;20118;-72
2022/06/26 02:45:34;;;;;;;5.95;2.95;;;;;;;;;;4987143;28;20150;-73
2022/06/26 02:48:00;;;;;;;8.73;3.03;;;;;;;;;;4991621;28;20105;-73
2022/06/26 02:50:26;;;;;;;8.98;3.17;;;;;;;;;;4993080;28;20114;-73
2022/06/26 02:52:52;;;;;;;8.05;4.15;;;;;;;;;;4993725;28;20466;-73
2022/06/26 02:55:18;;;;;;;8.02;3.10;;;;;;;;;;4987162;28;20026;-74
2022/06/26 02:57:44;;;;;;;6.35;2.60;;;;;;;;;;4973270;28;20412;-73
2022/06/26 03:00:12;;;;;;;6.70;2.90;;;18.20;99.90;;;;;;4992962;28;20572;-74
2022/06/26 03:02:38;;;;;;;4.45;2.65;;;;;;;;;;4988027;28;20117;-74
2022/06/26 03:05:05;;;;;;;7.53;2.92;;;;;;;;;;4994254;28;20040;-74
2022/06/26 03:07:31;;;;;;;5.38;2.53;;;;;;;;;;4992859;28;20108;-74
2022/06/26 03:09:57;;;;;;;3.92;2.30;;;;;;;;;;4992937;28;20031;-74
2022/06/26 03:12:23;;;;;;;6.68;2.65;;;;;;;;;;4972602;28;20061;-74
2022/06/26 03:14:49;;;;;;;4.72;2.85;;;;;;;;;;4994588;28;20030;-74
2022/06/26 03:17:16;;;;;;;5.55;2.70;;;;;;;;;;4984756;28;20041;-74
2022/06/26 03:19:42;;;;;;;3.67;2.63;;;;;;;;;;4991538;28;20023;-74
2022/06/26 03:22:08;;;;;;;4.30;2.78;;;;;;;;;;4993951;28;20034;-74
2022/06/26 03:24:34;;;;;;;4.10;2.92;;;;;;;;;;4987237;28;20022;-74
2022/06/26 03:27:00;;;;;;;6.00;2.58;;;;;;;;;;4987300;28;20565;-74
2022/06/26 03:29:27;;;;;;;5.47;2.60;;;;;;;;;;4992274;28;20038;-74
2022/06/26 03:31:53;;;;;;;5.32;3.03;;;18.00;99.90;;;;;;4992620;28;20038;-74
2022/06/26 03:34:19;;;;;;;4.80;2.65;;;;;;;;;;4991776;28;20057;-74
2022/06/26 03:36:45;;;;;;;3.83;2.40;;;;;;;;;;4992326;28;20030;-74
2022/06/26 03:39:11;;;;;;;4.78;2.45;;;;;;;;;;4982927;28;20140;-74
2022/06/26 03:41:38;;;;;;;2.53;2.30;;;;;;;;;;4989926;28;20487;-74
2022/06/26 03:44:06;;;;;;;2.78;2.10;;;;;;;;;;4991614;28;20022;-74
2022/06/26 03:46:32;;;;;;;5.95;2.95;;;;;;;;;;4987016;28;20502;-74
2022/06/26 03:48:58;;;;;;;5.03;2.55;;;;;;;;;;4990627;28;20031;-74
2022/06/26 03:51:24;;;;;;;6.30;2.88;;;;;;;;;;4989017;28;20172;-74
2022/06/26 03:53:50;;;;;;;4.40;2.45;;;;;;;;;;4980585;28;20118;-74
2022/06/26 03:56:17;;;;;;;2.88;2.55;;;;;;;;;;4979480;28;20035;-74
2022/06/26 03:58:43;;;;;;;2.97;2.58;;;;;;;;;;4986163;28;20097;-74
2022/06/26 04:01:10;;;;;;;5.70;2.80;;;;;;;;;;4974932;28;20026;-74
2022/06/26 04:03:36;;;;;;;4.93;2.40;;;;;;;;;;4975191;28;20109;-74
2022/06/26 04:06:02;;;;;;;4.10;2.80;;;;;;;;;;4992187;28;20136;-74
2022/06/26 04:08:28;;;;;;;4.97;2.78;;;;;;;;;;4992953;28;20450;-74
2022/06/26 04:10:54;;;;;;;3.08;2.47;;;;;;;;;;4986702;28;20077;-74
2022/06/26 04:13:20;;;;;;;8.20;2.65;;;;;;;;;;4956218;28;20038;-73
2022/06/26 04:15:45;;;;;;;5.10;2.63;;;18.30;99.90;;;;;;4981558;28;20497;-74
2022/06/26 04:18:11;;;;;;;5.95;3.30;;;;;;;;;;4986207;28;20484;-74
2022/06/26 04:20:37;;;;;;;4.63;2.95;;;;;;;;;;4989621;28;20084;-74
2022/06/26 04:23:08;;;;;;;3.30;2.38;;;;;;;;;;4969582;28;20126;-74
2022/06/26 04:25:35;;;;;;;3.47;3.10;;;;;;;;;;4989295;28;20030;-74
2022/06/26 04:28:01;;;;;;;4.88;3.42;;;18.30;99.90;;;;;;4979967;28;20066;-73
2022/06/26 04:30:27;;;;;;;6.00;3.28;;;;;;;;;;4987037;28;20380;-73
2022/06/26 04:32:53;;;;;;;5.25;4.03;;;;;;;;;;4991042;28;20097;-73
2022/06/26 04:35:19;;;;;;;4.97;2.92;;;;;;;;;;4992967;28;20030;-73
2022/06/26 04:37:46;;;;;;;9.00;2.60;;;;;;;;;;4979250;28;20130;-72
2022/06/26 04:40:13;;;;;;;5.38;3.17;;;;;;;;;;4989039;28;20391;-74
2022/06/26 04:42:40;;;;;;;5.40;3.08;;;;;;;;;;4987765;28;20112;-73
2022/06/26 04:45:06;;;;;;;4.55;3.03;;;;;;;;;;4985708;28;20030;-73
2022/06/26 04:47:32;;;;;;;4.15;3.35;;;;;;;;;;4987607;28;20041;-74
2022/06/26 04:49:58;;;;;;;4.85;3.05;;;;;;;;;;4988264;28;20031;-74
2022/06/26 04:52:24;;;;;;;5.25;3.45;;;;;;;;;;4973231;28;20034;-74
2022/06/26 04:54:50;;;;;;;8.25;3.50;;;;;;;;;;4964586;28;20034;-74
2022/06/26 04:57:17;;;;;;;4.53;3.35;;;;;;;;;;4973584;28;20023;-74
2022/06/26 04:59:46;;;;;;;7.18;3.20;;;18.40;99.90;;;;;;4982906;28;20026;-74
2022/06/26 05:02:12;;;;;;;5.50;3.28;;;;;;;;;;4985377;28;20041;-74
2022/06/26 05:04:38;;;;;;;4.90;3.72;;;;;;;;;;4973633;28;20034;-75
2022/06/26 05:07:05;;;;;;;3.70;3.40;;;;;;;;;;4988389;28;20054;-74
2022/06/26 05:09:31;;;;;;;5.00;4.32;;;;;;;;;;4989256;28;20181;-74
2022/06/26 05:11:57;;;;;;;6.05;4.20;;;;;;;;;;4988055;28;20553;-74
2022/06/26 05:14:23;;;;;;;5.97;5.40;;;;;;;;;;4983362;28;20130;-74
2022/06/26 05:16:50;;;;;;;45.30;34.33;;;;;;;;;;4986099;28;20038;-74
2022/06/26 05:19:16;;;;;;;8.25;5.40;;;;;;;;;;4988248;28;20520;-73
2022/06/26 05:21:42;;;;;;;7.65;5.30;;;;;;;;;;5006287;28;20030;-74
2022/06/26 05:24:08;;;;;;;8.23;5.85;;;18.80;99.90;;;;;;4990863;28;20080;-73
2022/06/26 05:26:34;;;;;;;7.57;6.18;;;;;;;;;;4983754;28;20388;-73
2022/06/26 05:29:00;;;;;;;7.72;6.15;;;;;;;;;;4975689;28;20035;-74
2022/06/26 05:31:26;;;;;;;11.15;8.60;;;;;;;;;;4971664;28;20042;-74
2022/06/26 05:33:53;;;;;;;9.52;8.52;;;;;;;;;;4990388;28;20034;-76
2022/06/26 05:36:18;;;;;;;9.77;8.55;;;18.80;99.90;;;;;;4988881;28;20037;-73
2022/06/26 05:38:44;;;;;;;13.73;9.50;;;;;;;;;;4991400;28;20029;-72
2022/06/26 05:41:10;;;;;;;13.55;8.88;;;;;;;;;;4988511;28;20474;-72
2022/06/26 05:43:36;;;;;;;15.35;12.80;;;;;;;;;;4985886;28;20034;-72
2022/06/26 05:46:03;;;;;;;17.40;13.75;;;;;;;;;;4979570;28;20027;-72
2022/06/26 05:48:28;;;;;;;18.08;15.57;;;;;;;;;;4982476;28;20034;-73
2022/06/26 05:50:55;;;;;;;18.50;16.35;;;;;;;;;;4988575;28;20043;-73
2022/06/26 05:53:24;;;;;;;22.65;18.67;;;18.80;99.90;;;;;;4987837;28;20066;-73
2022/06/26 05:55:50;;;;;;;19.65;17.67;;;;;;;;;;4987656;28;20486;-73
2022/06/26 05:58:16;;;;;;;22.00;19.40;;;;;;;;;;4990215;28;20037;-73
2022/06/26 06:00:42;;;;;;;22.58;19.25;;;;;;;;;;4970710;28;20089;-72
2022/06/26 06:03:08;;;;;;;23.65;18.85;;;;;;;;;;4989455;28;20030;-73
2022/06/26 06:05:34;;;;;;;20.63;17.67;;;;;;;;;;4987590;28;20027;-73
2022/06/26 06:08:01;;;;;;;21.70;18.80;;;;;;;;;;4966565;28;21092;-73
2022/06/26 06:10:27;;;;;;;19.85;17.00;;;;;;;;;;4985747;28;20026;-73
2022/06/26 06:12:53;;;;;;;22.77;17.50;;;;;;;;;;4972305;28;20440;-73
2022/06/26 06:15:20;;;;;;;21.20;16.58;;;;;;;;;;4984466;28;20038;-73
2022/06/26 06:17:46;;;;;;;20.08;15.38;;;;;;;;;;4954167;28;20019;-72
2022/06/26 06:20:12;;;;;;;19.90;15.18;;;;;;;;;;4988224;28;20192;-73
2022/06/26 06:22:58;;;;;;;20.30;14.75;;;;;;;;;;4991361;28;20042;-73
2022/06/26 06:25:24;;;;;;;16.20;13.40;;;;;;;;;;4974928;28;20030;-73
2022/06/26 06:27:51;;;;;;;17.67;14.30;;;;;;;;;;4978950;28;20035;-73
2022/06/26 06:30:17;;;;;;;19.70;15.05;;;19.30;99.90;;;;;;4983780;28;20027;-73
2022/06/26 06:32:45;;;;;;;19.73;15.40;;;;;;;;;;4990823;28;20046;-73
2022/06/26 06:35:13;;;;;;;24.95;16.30;;;;;;;;;;4971599;28;20125;-72
2022/06/26 06:37:39;;;;;;;18.77;13.68;;;;;;;;;;4984084;28;20033;-73
2022/06/26 06:40:06;;;;;;;22.25;15.70;;;;;;;;;;4989877;28;20026;-72
2022/06/26 06:42:32;;;;;;;23.13;16.27;;;;;;;;;;4985807;28;20034;-72
2022/06/26 06:44:59;;;;;;;22.25;15.07;;;;;;;;;;4992045;28;20146;-72
2022/06/26 06:47:25;;;;;;;19.25;14.45;;;;;;;;;;4982922;28;21918;-72
2022/06/26 06:49:51;;;;;;;16.15;12.93;;;;;;;;;;4991977;28;20048;-71
2022/06/26 06:52:17;;;;;;;18.42;12.75;;;;;;;;;;4990412;28;20035;-72
2022/06/26 06:54:43;;;;;;;16.25;12.70;;;;;;;;;;4987148;28;20467;-72
2022/06/26 06:57:09;;;;;;;14.75;12.15;;;;;;;;;;4989298;28;20084;-72
2022/06/26 06:59:35;;;;;;;13.32;11.10;;;;;;;;;;4975038;28;20030;-72
2022/06/26 07:02:01;;;;;;;16.17;11.95;;;;;;;;;;4984773;28;20397;-72
2022/06/26 07:04:27;;;;;;;15.65;11.00;;;;;;;;;;4987837;28;20026;-72
2022/06/26 07:06:54;;;;;;;16.83;10.98;;;24.90;99.90;;;;;;4985959;28;20129;-73
2022/06/26 07:09:20;;;;;;;11.05;9.73;;;;;;;;;;4990983;28;20036;-72
2022/06/26 07:11:46;;;;;;;12.50;8.52;;;;;;;;;;4985299;28;20105;-73
2022/06/26 07:14:12;;;;;;;12.52;7.13;;;;;;;;;;4993760;28;20061;-72
2022/06/26 07:16:38;;;;;;;15.73;8.70;;;;;;;;;;4984925;28;20030;-73
2022/06/26 07:19:04;;;;;;;13.05;8.90;;;;;;;;;;4989616;28;20121;-73
2022/06/26 07:21:30;;;;;;;14.15;8.90;;;;;;;;;;4993033;28;20080;-74
2022/06/26 07:23:56;;;;;;;10.98;8.35;;;24.70;99.90;;;;;;4977217;28;20033;-73
2022/06/26 07:26:22;;;;;;;11.50;7.20;;;;;;;;;;4993652;28;20035;-73
2022/06/26 07:28:48;;;;;;;12.82;7.85;;;;;;;;;;4992035;28;20038;-73
2022/06/26 07:31:14;;;;;;;8.93;7.25;;;;;;;;;;4992821;28;20386;-73
2022/06/26 07:36:25;;;;;;;11.55;7.32;;;;;;;;;;4984418;28;20057;-72
2022/06/26 07:38:51;;;;;;;12.15;8.32;;;;;;;;;;4991540;28;20034;-74
2022/06/26 07:41:17;;;;;;;10.73;7.68;;;;;;;;;;4989767;28;20347;-71
2022/06/26 07:43:43;;;;;;;9.52;6.95;;;;;;;;;;4989755;28;20034;-71
2022/06/26 07:46:09;;;;;;;8.15;6.50;;;;;;;;;;4986306;28;20116;-71
2022/06/26 07:48:35;;;;;;;10.30;4.95;;;;;;;;;;4974281;28;20398;-72
2022/06/26 07:51:02;;;;;;;8.63;4.20;;;;;;;;;;4989714;28;20039;-73
2022/06/26 07:53:28;;;;;;;5.60;3.97;;;;;;;;;;4992263;28;20030;-73
2022/06/26 07:55:54;;;;;;;6.90;4.50;;;;;;;;;;4993873;28;20339;-73
2022/06/26 07:58:20;;;;;;;5.50;2.47;;;25.10;99.90;;;;;;4991897;28;20474;-73
2022/06/26 08:00:46;;;;;;;6.88;3.60;;;;;;;;;;4989384;28;20041;-73
2022/06/26 08:03:14;;;;;;;5.53;2.72;;;;;;;;;;4990192;28;20481;-73
2022/06/26 08:05:40;;;;;;;7.10;3.70;;;26.60;99.90;;;;;;4975519;28;20030;-73
2022/06/26 08:08:07;;;;;;;3.17;2.70;;;;;;;;;;4989776;28;20065;-73
2022/06/26 08:10:33;;;;;;;5.28;2.78;;;;;;;;;;4991619;28;20034;-73
2022/06/26 08:12:59;;;;;;;4.60;2.30;;;;;;;;;;4988402;28;20049;-74
2022/06/26 08:15:26;;;;;;;3.90;2.63;;;;;;;;;;4987539;28;20031;-73
2022/06/26 08:17:52;;;;;;;3.22;1.85;;;;;;;;;;4989341;28;20034;-73
2022/06/26 08:20:18;;;;;;;2.63;1.95;;;27.30;99.90;;;;;;4991524;28;20401;-74
2022/06/26 08:22:44;;;;;;;5.05;2.33;;;;;;;;;;4992417;28;20034;-73
2022/06/26 08:25:12;;;;;;;3.92;2.25;;;;;;;;;;4972525;28;20041;-73
2022/06/26 08:27:38;;;;;;;4.75;2.50;;;;;;;;;;4992088;28;20378;-74
2022/06/26 08:30:04;;;;;;;3.90;1.70;;;;;;;;;;4989140;28;20390;-74
2022/06/26 08:32:30;;;;;;;2.13;1.30;;;;;;;;;;4989033;28;20070;-73
2022/06/26 08:34:56;;;;;;;2.53;1.33;;;;;;;;;;4988585;28;20034;-73
2022/06/26 08:37:22;;;;;;;3.22;1.67;;;;;;;;;;4991771;28;20041;-73
2022/06/26 08:39:48;;;;;;;5.10;2.00;;;;;;;;;;4990246;28;20038;-73
2022/06/26 08:42:14;;;;;;;2.53;1.48;;;;;;;;;;4990512;28;20449;-73
2022/06/26 08:44:44;;;;;;;7.57;1.95;;;;;;;;;;4979661;28;20034;-74
2022/06/26 08:47:11;;;;;;;3.28;1.67;;;;;;;;;;4986883;28;20057;-74
2022/06/26 08:49:37;;;;;;;5.93;2.67;;;;;;;;;;4971515;28;20023;-74
2022/06/26 08:52:04;;;;;;;2.13;1.13;;;28.30;93.60;;;;;;4987726;28;20038;-73
2022/06/26 08:54:30;;;;;;;3.28;1.40;;;27.90;99.60;;;;;;4992167;28;20027;-72
2022/06/26 08:56:57;;;;;;;8.90;1.40;;;27.90;95.20;;;;;;4989451;28;20419;-73
2022/06/26 08:59:23;;;;;;;3.58;1.23;;;;;;;;;;4989129;28;20063;-73
2022/06/26 09:01:50;;;;;;;4.35;1.80;;;;;;;;;;4990767;28;20501;-71
2022/06/26 09:04:16;;;;;;;3.70;2.20;;;;;;;;;;4978418;28;20039;-72
2022/06/26 09:06:43;;;;;;;3.90;1.70;;;;;;;;;;4987625;28;20116;-72
2022/06/26 09:09:17;;;;;;;2.03;1.20;;;29.40;91.40;;;;;;4968305;28;20085;-72
2022/06/26 09:11:45;;;;;;;5.40;1.85;;;29.70;93.50;;;;;;4985393;28;20042;-73
2022/06/26 09:14:12;;;;;;;4.55;1.73;;;;;;;;;;4987227;28;20467;-72
2022/06/26 09:16:39;;;;;;;4.15;1.90;;;30.00;98.00;;;;;;4976578;28;20093;-73
2022/06/26 09:19:26;;;;;;;4.28;2.05;;;;;;;;;;4984109;28;21751;-73
2022/06/26 09:21:52;;;;;;;3.63;1.80;;;29.80;96.40;;;;;;4981471;28;20057;-73
2022/06/26 09:24:21;;;;;;;3.58;1.40;;;;;;;;;;4986917;28;20117;-72
2022/06/26 09:27:03;;;;;;;4.45;1.95;;;30.50;89.40;;;;;;4981438;28;20447;-73
2022/06/26 09:29:29;;;;;;;4.70;2.17;;;;;;;;;;4977949;28;20033;-73
2022/06/26 09:31:55;;;;;;;2.97;1.60;;;;;;;;;;4958688;28;20054;-73
2022/06/26 09:34:22;;;;;;;4.70;1.40;;;;;;;;;;4979028;28;20034;-75
2022/06/26 09:37:05;;;;;;;2.10;1.58;;;30.20;87.30;;;;;;4995063;28;20034;-75
2022/06/26 09:39:32;;;;;;;3.25;1.63;;;29.90;85.50;;;;;;4988491;28;20045;-74
2022/06/26 09:42:03;;;;;;;2.25;1.55;;;;;;;;;;4972148;28;20096;-74
2022/06/26 09:44:29;;;;;;;6.65;1.63;;;;;;;;;;4976406;28;20038;-74
2022/06/26 09:46:55;;;;;;;3.03;1.30;;;;;;;;;;4983044;28;20547;-76
2022/06/26 09:49:21;;;;;;;4.30;1.70;;;;;;;;;;4989325;28;20040;-75
2022/06/26 09:51:47;;;;;;;3.60;2.13;;;;;;;;;;4986888;28;20038;-72
2022/06/26 09:54:13;;;;;;;2.97;1.70;;;30.10;93.20;;;;;;4989437;28;20058;-74
2022/06/26 09:56:40;;;;;;;3.22;1.75;;;;;;;;;;4989157;28;20034;-73
2022/06/26 09:59:07;;;;;;;5.45;2.00;;;30.00;93.40;;;;;;4987451;28;20477;-73
2022/06/26 10:07:03;;;;;;;3.95;1.35;;;;;;;;;;4987914;28;20109;-73
2022/06/26 10:09:29;;;;;;;5.90;1.55;;;;;;;;;;4960580;28;20574;-73
2022/06/26 10:11:57;;;;;;;6.68;1.52;;;;;;;;;;4978854;28;20038;-72
2022/06/26 10:14:26;;;;;;;4.43;1.40;;;;;;;;;;4988568;28;20018;-73
2022/06/26 10:16:52;;;;;;;4.35;1.52;;;;;;;;;;4979401;28;20403;-73
2022/06/26 10:19:36;;;;;;;5.95;1.98;;;28.70;84.60;;;;;;4989536;28;20065;-72
2022/06/26 10:22:02;;;;;;;4.45;1.90;;;;;;;;;;4988815;28;20030;-72
2022/06/26 10:24:28;;;;;;;5.53;1.42;;;;;;;;;;4988644;28;20038;-72
2022/06/26 10:26:58;;;;;;;4.05;1.65;;;;;;;;;;4978869;28;20053;-72
2022/06/26 10:29:37;;;;;;;6.45;1.90;;;;;;;;;;4989985;28;20034;-72
2022/06/26 10:32:04;;;;;;;2.72;1.33;;;;;;;;;;4984660;28;20035;-72
2022/06/26 10:34:31;;;;;;;7.13;2.13;;;;;;;;;;4973760;28;20038;-72
2022/06/26 10:36:59;;;;;;;4.43;1.60;;;;;;;;;;4989768;28;20065;-72
2022/06/26 10:39:36;;;;;;;3.78;1.70;;;;;;;;;;4979714;28;20043;-73
2022/06/26 10:44:55;;;;;;;3.88;1.67;;;;;;;;;;4985789;28;20568;-72
2022/06/26 10:47:21;;;;;;;4.65;1.88;;;;;;;;;;4986873;28;20062;-73
2022/06/26 10:49:51;;;;;;;5.97;1.80;;;;;;;;;;4990502;28;20030;-74
2022/06/26 10:52:28;;;;;;;5.38;1.85;;;28.20;91.30;;;;;;4973582;28;20201;-77
2022/06/26 10:54:55;;;;;;;6.53;2.45;;;28.30;90.90;;;;;;4991560;28;20023;-77
2022/06/26 10:57:37;;;;;;;4.90;2.28;;;28.40;89.80;;;;;;4986198;28;20037;-77
2022/06/26 11:00:06;;;;;;;3.72;1.65;;;;;;;;;;4965342;28;20429;-77
2022/06/26 11:02:39;;;;;;;5.18;1.58;;;;;;;;;;4963278;28;20575;-74
2022/06/26 11:05:06;;;;;;;4.32;1.50;;;;;;;;;;4979385;28;20479;-74
2022/06/26 11:07:41;;;;;;;9.38;2.38;;;;;;;;;;4985010;28;20046;-75
2022/06/26 11:10:20;;;;;;;3.70;1.38;;;28.50;89.40;;;;;;4986382;28;20057;-74
2022/06/26 11:12:51;;;;;;;4.22;1.70;;;28.70;88.40;;;;;;4987298;28;20046;-74
2022/06/26 11:15:32;;;;;;;3.53;1.60;;;28.30;88.70;;;;;;4972103;28;20042;-74
2022/06/26 11:18:05;;;;;;;4.18;1.60;;;28.10;89.60;;;;;;4975553;28;20112;-74
2022/06/26 11:20:52;;;;;;;6.03;1.67;;;28.20;90.90;;;;;;4990105;28;20177;-74
2022/06/26 11:23:26;;;;;;;2.28;1.52;;;;;;;;;;4991345;28;20038;-74
2022/06/26 11:26:03;;;;;;;3.42;1.20;;;27.80;86.80;;;;;;4990565;28;20382;-74
2022/06/26 11:28:32;;;;;;;5.38;2.33;;;;;;;;;;4987696;28;20184;-74
2022/06/26 11:30:59;;;;;;;4.28;1.77;;;;;;;;;;4975213;28;20069;-74
2022/06/26 11:33:26;;;;;;;5.43;1.95;;;;;;;;;;4989050;28;20030;-74
2022/06/26 11:35:53;;;;;;;3.88;1.80;;;;;;;;;;4986107;28;20035;-75
2022/06/26 11:38:20;;;;;;;3.47;1.92;;;;;;;;;;4990012;28;20117;-75
2022/06/26 11:40:47;;;;;;;5.05;1.88;;;;;;;;;;4990532;28;20027;-74
2022/06/26 11:43:13;;;;;;;5.63;2.50;;;;;;;;;;4996974;28;20394;-74
2022/06/26 11:45:40;;;;;;;10.48;2.53;;;;;;;;;;4986163;28;20050;-74
2022/06/26 11:48:08;;;;;;;5.00;2.20;;;;;;;;;;4988128;28;20026;-74
2022/06/26 11:50:36;;;;;;;5.82;2.95;;;;;;;;;;4992674;28;20037;-74
2022/06/26 11:53:03;;;;;;;7.82;2.53;;;;;;;;;;4973349;28;20182;-75
2022/06/26 11:55:30;;;;;;;6.65;2.65;;;;;;;;;;4989076;28;20027;-73
2022/06/26 11:57:56;;;;;;;5.93;2.88;;;;;;;;;;4992298;28;20030;-74
2022/06/26 12:00:22;;;;;;;4.75;2.30;;;;;;;;;;4982952;28;20046;-74
2022/06/26 12:02:49;;;;;;;4.40;2.47;;;;;;;;;;4960439;28;20039;-74
2022/06/26 12:05:27;;;;;;;5.28;1.90;;;26.70;93.50;;;;;;4966279;28;20037;-75
2022/06/26 12:07:53;;;;;;;6.55;3.63;;;27.10;92.40;;;;;;4985572;28;20057;-75
2022/06/26 12:10:36;;;;;;;4.47;2.70;;;;;;;;;;4983739;28;20136;-74
2022/06/26 12:13:03;;;;;;;5.95;2.63;;;;;;;;;;4987152;28;20042;-74
2022/06/26 12:15:31;;;;;;;5.68;2.78;;;;;;;;;;4990049;28;20038;-74
2022/06/26 12:17:58;;;;;;;5.45;2.15;;;;;;;;;;4981648;28;20027;-74
2022/06/26 12:20:24;;;;;;;6.15;2.38;;;;;;;;;;4991317;28;20034;-74
2022/06/26 12:22:52;;;;;;;4.40;1.85;;;;;;;;;;4982569;28;20046;-74
2022/06/26 12:25:37;;;;;;;6.03;1.92;;;;;;;;;;4989511;28;20121;-73
2022/06/26 12:28:03;;;;;;;4.35;1.40;;;;;;;;;;4983258;28;20033;-73
2022/06/26 12:30:36;;;;;;;3.70;1.50;;;;;;;;;;4981082;28;20390;-73
2022/06/26 12:33:04;;;;;;;4.28;1.75;;;;;;;;;;4991013;28;20047;-73
2022/06/26 12:35:31;;;;;;;4.97;2.00;;;25.90;98.10;;;;;;4984546;28;20037;-73
2022/06/26 12:37:59;;;;;;;4.60;1.77;;;;;;;;;;4988697;28;20018;-73
2022/06/26 12:40:26;;;;;;;4.18;1.70;;;;;;;;;;4964313;28;20363;-73
2022/06/26 12:42:53;;;;;;;3.05;1.52;;;;;;;;;;4984209;28;20035;-72
2022/06/26 12:45:19;;;;;;;3.33;2.05;;;;;;;;;;4980214;28;20043;-72
2022/06/26 12:47:45;;;;;;;6.28;1.90;;;;;;;;;;4967872;28;20567;-72
2022/06/26 12:50:13;;;;;;;4.75;2.00;;;;;;;;;;4982189;28;20031;-72
2022/06/26 12:52:39;;;;;;;4.60;2.33;;;26.20;98.60;;;;;;4981487;28;20027;-73
2022/06/26 12:55:05;;;;;;;6.03;2.08;;;;;;;;;;4992128;28;20038;-71
2022/06/26 12:57:32;;;;;;;6.00;2.42;;;;;;;;;;4989879;28;20038;-72
2022/06/26 12:59:58;;;;;;;6.00;2.50;;;;;;;;;;4985867;28;20439;-72
2022/06/26 13:02:23;;;;;;;5.90;2.92;;;26.30;98.90;;;;;;4990953;28;20046;-72
2022/06/26 13:04:51;;;;;;;6.50;2.47;;;26.20;98.90;;;;;;4986859;28;20023;-73
2022/06/26 13:07:18;;;;;;;12.43;9.68;;;;;;;;;;4991741;28;20057;-73
2022/06/26 13:09:44;;;;;;;7.25;3.33;;;26.10;99.10;;;;;;4988644;28;20045;-72
2022/06/26 13:12:10;;;;;;;5.57;2.65;;;;;;;;;;4983021;28;20031;-72
2022/06/26 13:14:36;;;;;;;6.13;2.70;;;;;;;;;;4970031;28;20560;-72
2022/06/26 13:17:02;;;;;;;5.35;2.80;;;;;;;;;;4989210;28;20168;-72
2022/06/26 13:19:28;;;;;;;6.90;3.47;;;;;;;;;;4969608;28;20027;-72
2022/06/26 13:21:54;;;;;;;5.97;2.90;;;;;;;;;;4986384;28;20046;-73
2022/06/26 13:24:20;;;;;;;4.75;2.50;;;;;;;;;;4988331;28;20496;-72
2022/06/26 13:26:49;;;;;;;6.47;3.15;;;;;;;;;;4987348;28;20030;-72
2022/06/26 13:29:16;;;;;;;7.15;3.35;;;25.60;99.90;;;;;;4992738;28;20065;-71
2022/06/26 13:31:42;;;;;;;6.10;3.20;;;;;;;;;;4978718;28;20050;-72
2022/06/26 13:34:08;;;;;;;4.70;2.75;;;;;;;;;;4988430;28;20062;-71
2022/06/26 13:36:34;;;;;;;4.70;2.40;;;;;;;;;;4991122;28;20125;-72
2022/06/26 13:39:01;;;;;;;5.57;2.42;;;;;;;;;;4987957;28;20030;-72
2022/06/26 13:41:27;;;;;;;5.72;1.60;;;;;;;;;;4983568;28;20038;-71
2022/06/26 13:43:53;;;;;;;5.50;2.15;;;;;;;;;;4991871;28;20378;-72
2022/06/26 13:46:19;;;;;;;3.95;2.05;;;;;;;;;;4983399;28;20030;-72
2022/06/26 13:48:45;;;;;;;5.22;1.33;;;;;;;;;;4990116;28;20070;-71
2022/06/26 13:51:11;;;;;;;3.90;1.83;;;;;;;;;;4987760;28;20162;-71
2022/06/26 13:53:37;;;;;;;4.47;1.95;;;;;;;;;;4989595;28;20061;-72
2022/06/26 13:56:03;;;;;;;3.25;1.60;;;;;;;;;;4981299;28;20038;-71
2022/06/26 13:58:29;;;;;;;5.18;1.80;;;;;;;;;;4990885;28;20026;-72
2022/06/26 14:00:55;;;;;;;8.00;4.10;;;;;;;;;;5000067;28;20041;-72
2022/06/26 14:03:23;;;;;;;4.82;1.85;;;;;;;;;;4989841;28;20075;-73
2022/06/26 14:05:49;;;;;;;3.58;1.80;;;24.30;95.90;;;;;;4988199;28;20034;-72
2022/06/26 14:08:15;;;;;;;5.90;1.35;;;;;;;;;;4983907;28;20059;-71
2022/06/26 14:10:41;;;;;;;3.95;1.58;;;;;;;;;;4965599;28;20046;-71
2022/06/26 14:13:07;;;;;;;4.63;1.65;;;;;;;;;;4990693;28;20042;-72
2022/06/26 14:15:33;;;;;;;4.15;1.10;;;;;;;;;;4987138;28;20497;-72
2022/06/26 14:17:58;;;;;;;4.43;2.00;;;24.80;97.40;;;;;;5004191;28;20058;-72
2022/06/26 14:20:24;;;;;;;1.95;1.25;;;;;;;;;;4978807;28;20037;-72
2022/06/26 14:28:20;;;;;;;3.03;1.20;;;;;;;;;;4983720;28;20171;-72
2022/06/26 14:30:46;;;;;;;6.60;1.63;;;;;;;;;;4981415;28;20043;-71
2022/06/26 14:33:15;;;;;;;4.18;1.23;;;24.80;99.90;;;;;;4984184;28;20061;-72
2022/06/26 14:35:41;;;;;;;4.80;1.58;;;;;;;;;;4967615;28;20101;-72
2022/06/26 14:38:07;;;;;;;5.45;2.03;;;;;;;;;;4983347;28;20042;-71